createdAt,value
2017-11-30T00:00:09.810Z,0
2017-11-30T00:01:31.540Z,0
2017-11-30T00:02:53.258Z,0
2017-11-30T00:04:15.388Z,0
2017-11-30T00:05:36.818Z,0
2017-11-30T00:06:58.817Z,0
2017-11-30T00:08:20.532Z,0
2017-11-30T00:09:41.966Z,0
2017-11-30T00:11:03.416Z,0
2017-11-30T00:12:24.593Z,0
2017-11-30T00:13:46.583Z,0
2017-11-30T00:15:08.670Z,0
2017-11-30T00:16:30.232Z,0
2017-11-30T00:17:52.088Z,0
2017-11-30T00:19:14.047Z,0
2017-11-30T00:20:35.851Z,0
2017-11-30T00:21:58.124Z,0
2017-11-30T00:23:19.855Z,0
2017-11-30T00:24:41.560Z,0
2017-11-30T00:26:03.670Z,0
2017-11-30T00:27:25.467Z,0
2017-11-30T00:28:47.438Z,0
2017-11-30T00:30:09.686Z,0
2017-11-30T00:31:31.596Z,0
2017-11-30T00:32:53.293Z,0
2017-11-30T00:34:15.284Z,0
2017-11-30T00:35:37.540Z,0
2017-11-30T00:36:59.288Z,0
2017-11-30T00:38:21.270Z,0
2017-11-30T00:39:42.700Z,0
2017-11-30T00:41:04.483Z,0
2017-11-30T00:42:26.497Z,0
2017-11-30T00:43:48.467Z,0
2017-11-30T00:45:10.901Z,0
2017-11-30T00:46:32.613Z,0
2017-11-30T00:47:54.400Z,0
2017-11-30T00:49:16.113Z,0
2017-11-30T00:50:37.931Z,0
2017-11-30T00:52:00.268Z,0
2017-11-30T00:53:22.296Z,0
2017-11-30T00:54:44.559Z,0
2017-11-30T00:56:06.619Z,0
2017-11-30T00:57:28.065Z,0
2017-11-30T00:58:49.772Z,0
2017-11-30T01:00:12.046Z,0
2017-11-30T01:01:34.051Z,0
2017-11-30T01:02:56.419Z,0
2017-11-30T01:04:18.693Z,0
2017-11-30T01:05:40.767Z,0
2017-11-30T01:07:02.267Z,0
2017-11-30T01:08:23.978Z,0
2017-11-30T01:09:46.267Z,0
2017-11-30T01:11:08.109Z,0
2017-11-30T01:12:30.108Z,0
2017-11-30T01:13:52.089Z,0
2017-11-30T01:15:13.848Z,0
2017-11-30T01:16:35.832Z,0
2017-11-30T01:17:56.750Z,0
2017-11-30T01:19:18.527Z,0
2017-11-30T01:20:40.108Z,0
2017-11-30T01:22:02.377Z,0
2017-11-30T01:23:24.497Z,0
2017-11-30T01:24:46.305Z,0
2017-11-30T01:26:07.756Z,0
2017-11-30T01:27:29.840Z,0
2017-11-30T01:28:51.424Z,0
2017-11-30T01:30:13.136Z,0
2017-11-30T01:31:34.975Z,0
2017-11-30T01:32:56.960Z,0
2017-11-30T01:34:18.938Z,0
2017-11-30T01:35:40.929Z,0
2017-11-30T01:37:02.388Z,0
2017-11-30T01:38:24.455Z,0
2017-11-30T01:39:46.734Z,0
2017-11-30T01:41:08.651Z,0
2017-11-30T01:42:30.628Z,0
2017-11-30T01:43:52.718Z,0
2017-11-30T01:45:14.708Z,0
2017-11-30T01:46:36.453Z,0
2017-11-30T01:47:58.194Z,0
2017-11-30T01:49:20.230Z,0
2017-11-30T01:50:42.226Z,0
2017-11-30T01:52:04.498Z,0
2017-11-30T01:53:25.949Z,0
2017-11-30T01:54:47.976Z,0
2017-11-30T01:56:10.064Z,0
2017-11-30T01:57:31.838Z,0
2017-11-30T01:58:53.118Z,0
2017-11-30T02:00:15.446Z,0
2017-11-30T02:01:36.607Z,0
2017-11-30T02:02:58.357Z,0
2017-11-30T02:04:19.837Z,0
2017-11-30T02:05:42.148Z,0
2017-11-30T02:07:04.451Z,0
2017-11-30T02:08:25.880Z,0
2017-11-30T02:09:47.807Z,0
2017-11-30T02:11:09.634Z,0
2017-11-30T02:12:31.315Z,0
2017-11-30T02:13:53.582Z,0
2017-11-30T02:15:15.901Z,0
2017-11-30T02:16:38.267Z,0
2017-11-30T02:18:00.282Z,0
2017-11-30T02:19:22.256Z,0
2017-11-30T02:20:44.113Z,0
2017-11-30T02:22:06.402Z,0
2017-11-30T02:23:28.437Z,0
2017-11-30T02:24:49.909Z,0
2017-11-30T02:26:12.253Z,0
2017-11-30T02:27:33.770Z,0
2017-11-30T02:28:55.498Z,0
2017-11-30T02:30:17.212Z,0
2017-11-30T02:31:39.470Z,0
2017-11-30T02:33:01.850Z,0
2017-11-30T02:34:23.690Z,0
2017-11-30T02:35:45.479Z,0
2017-11-30T02:37:07.468Z,0
2017-11-30T02:38:29.189Z,0
2017-11-30T02:39:50.791Z,0
2017-11-30T02:41:12.754Z,0
2017-11-30T02:42:34.510Z,0
2017-11-30T02:43:56.377Z,0
2017-11-30T02:45:18.717Z,0
2017-11-30T02:46:40.680Z,0
2017-11-30T02:48:02.792Z,0
2017-11-30T02:49:24.547Z,0
2017-11-30T02:50:45.967Z,0
2017-11-30T02:52:07.415Z,0
2017-11-30T02:53:29.411Z,0
2017-11-30T02:54:50.945Z,0
2017-11-30T02:56:12.374Z,0
2017-11-30T02:57:34.323Z,0
2017-11-30T02:58:56.438Z,0
2017-11-30T03:00:18.187Z,0
2017-11-30T03:01:39.899Z,0
2017-11-30T03:03:01.681Z,0
2017-11-30T03:04:23.110Z,0
2017-11-30T03:05:45.088Z,0
2017-11-30T03:07:06.551Z,0
2017-11-30T03:08:28.657Z,0
2017-11-30T03:09:50.630Z,0
2017-11-30T03:11:12.376Z,0
2017-11-30T03:12:34.149Z,0
2017-11-30T03:13:56.282Z,0
2017-11-30T03:15:18.274Z,0
2017-11-30T03:16:39.518Z,0
2017-11-30T03:18:01.004Z,0
2017-11-30T03:19:23.276Z,0
2017-11-30T03:20:44.830Z,0
2017-11-30T03:22:06.523Z,0
2017-11-30T03:23:28.749Z,0
2017-11-30T03:24:49.898Z,0
2017-11-30T03:26:11.056Z,0
2017-11-30T03:27:32.789Z,0
2017-11-30T03:28:54.599Z,0
2017-11-30T03:30:16.984Z,0
2017-11-30T03:31:37.860Z,0
2017-11-30T03:32:59.857Z,0
2017-11-30T03:34:21.568Z,0
2017-11-30T03:35:43.290Z,0
2017-11-30T03:37:05.030Z,0
2017-11-30T03:38:26.581Z,0
2017-11-30T03:39:48.538Z,0
2017-11-30T03:41:10.125Z,0
2017-11-30T03:42:31.849Z,0
2017-11-30T03:43:53.569Z,0
2017-11-30T03:45:15.538Z,0
2017-11-30T03:46:37.578Z,0
2017-11-30T03:47:59.622Z,0
2017-11-30T03:49:21.599Z,0
2017-11-30T03:50:43.569Z,0
2017-11-30T03:52:05.337Z,0
2017-11-30T03:53:26.551Z,0
2017-11-30T03:54:48.901Z,0
2017-11-30T03:56:10.607Z,0
2017-11-30T03:57:32.709Z,0
2017-11-30T03:58:54.774Z,0
2017-11-30T04:00:16.799Z,0
2017-11-30T04:01:38.482Z,0
2017-11-30T04:03:00.459Z,0
2017-11-30T04:04:22.176Z,0
2017-11-30T04:05:43.348Z,0
2017-11-30T04:07:05.350Z,0
2017-11-30T04:08:27.347Z,0
2017-11-30T04:09:48.642Z,0
2017-11-30T04:11:10.220Z,0
2017-11-30T04:12:31.661Z,0
2017-11-30T04:13:53.103Z,0
2017-11-30T04:15:14.577Z,0
2017-11-30T04:16:36.552Z,0
2017-11-30T04:17:58.277Z,0
2017-11-30T04:19:20.023Z,0
2017-11-30T04:20:41.747Z,0
2017-11-30T04:22:03.566Z,0
2017-11-30T04:23:25.317Z,0
2017-11-30T04:24:47.569Z,0
2017-11-30T04:26:09.570Z,0
2017-11-30T04:27:30.748Z,0
2017-11-30T04:28:52.456Z,0
2017-11-30T04:30:14.444Z,0
2017-11-30T04:31:35.920Z,0
2017-11-30T04:32:57.792Z,0
2017-11-30T04:34:19.533Z,0
2017-11-30T04:35:41.496Z,0
2017-11-30T04:37:03.567Z,0
2017-11-30T04:38:25.222Z,0
2017-11-30T04:39:46.637Z,0
2017-11-30T04:41:08.347Z,0
2017-11-30T04:42:30.337Z,0
2017-11-30T04:43:51.846Z,0
2017-11-30T04:45:13.581Z,0
2017-11-30T04:46:35.435Z,0
2017-11-30T04:47:57.136Z,0
2017-11-30T04:49:19.112Z,0
2017-11-30T04:50:41.097Z,0
2017-11-30T04:52:02.567Z,0
2017-11-30T04:53:24.815Z,0
2017-11-30T04:54:46.247Z,0
2017-11-30T04:56:07.679Z,0
2017-11-30T04:57:29.190Z,0
2017-11-30T04:58:50.892Z,0
2017-11-30T05:00:12.699Z,0
2017-11-30T05:01:34.434Z,0
2017-11-30T05:02:56.711Z,0
2017-11-30T05:04:18.176Z,0
2017-11-30T05:05:40.457Z,0
2017-11-30T05:07:01.657Z,0
2017-11-30T05:08:23.096Z,0
2017-11-30T05:09:45.079Z,0
2017-11-30T05:11:06.508Z,0
2017-11-30T05:12:28.519Z,0
2017-11-30T05:13:50.527Z,0
2017-11-30T05:15:11.683Z,0
2017-11-30T05:16:33.119Z,0
2017-11-30T05:17:54.827Z,0
2017-11-30T05:19:16.825Z,0
2017-11-30T05:20:38.269Z,0
2017-11-30T05:22:00.543Z,0
2017-11-30T05:23:21.992Z,0
2017-11-30T05:24:43.421Z,0
2017-11-30T05:26:05.506Z,0
2017-11-30T05:27:27.208Z,0
2017-11-30T05:28:48.688Z,0
2017-11-30T05:30:10.697Z,0
2017-11-30T05:31:32.501Z,0
2017-11-30T05:32:54.246Z,0
2017-11-30T05:34:16.526Z,0
2017-11-30T05:35:38.501Z,0
2017-11-30T05:37:00.241Z,0
2017-11-30T05:38:22.055Z,0
2017-11-30T05:39:44.133Z,0
2017-11-30T05:41:06.489Z,0
2017-11-30T05:42:28.469Z,0
2017-11-30T05:43:50.471Z,0
2017-11-30T05:45:12.579Z,0
2017-11-30T05:46:34.308Z,0
2017-11-30T05:47:55.479Z,0
2017-11-30T05:49:17.746Z,0
2017-11-30T05:50:39.448Z,0
2017-11-30T05:52:01.211Z,0
2017-11-30T05:53:23.284Z,0
2017-11-30T05:54:45.018Z,0
2017-11-30T05:56:07.015Z,0
2017-11-30T05:57:27.938Z,0
2017-11-30T05:58:49.653Z,0
2017-11-30T06:00:11.616Z,0
2017-11-30T06:01:34.140Z,0
2017-11-30T06:02:55.586Z,0
2017-11-30T06:04:17.621Z,0
2017-11-30T06:05:39.890Z,0
2017-11-30T06:07:01.654Z,0
2017-11-30T06:08:23.087Z,0
2017-11-30T06:09:44.889Z,0
2017-11-30T06:11:07.151Z,0
2017-11-30T06:12:29.837Z,0
2017-11-30T06:13:51.587Z,0
2017-11-30T06:15:13.316Z,0
2017-11-30T06:16:34.507Z,0
2017-11-30T06:17:56.019Z,0
2017-11-30T06:19:18.166Z,0
2017-11-30T06:20:40.188Z,0
2017-11-30T06:22:01.900Z,0
2017-11-30T06:23:23.977Z,0
2017-11-30T06:24:45.689Z,0
2017-11-30T06:26:07.162Z,0
2017-11-30T06:27:28.896Z,0
2017-11-30T06:28:50.913Z,0
2017-11-30T06:30:13.322Z,0
2017-11-30T06:31:34.775Z,0
2017-11-30T06:32:56.512Z,0
2017-11-30T06:34:17.951Z,0
2017-11-30T06:35:39.926Z,0
2017-11-30T06:37:01.366Z,0
2017-11-30T06:38:23.411Z,0
2017-11-30T06:39:45.384Z,0
2017-11-30T06:41:06.823Z,0
2017-11-30T06:42:28.719Z,0
2017-11-30T06:43:50.806Z,0
2017-11-30T06:45:12.807Z,0
2017-11-30T06:46:34.852Z,0
2017-11-30T06:47:56.829Z,0
2017-11-30T06:49:18.348Z,0
2017-11-30T06:50:39.917Z,0
2017-11-30T06:52:01.668Z,0
2017-11-30T06:53:23.243Z,0
2017-11-30T06:54:45.342Z,0
2017-11-30T06:56:07.039Z,0
2017-11-30T06:57:28.853Z,0
2017-11-30T06:58:50.287Z,0
2017-11-30T07:00:12.399Z,0
2017-11-30T07:01:34.197Z,0
2017-11-30T07:02:56.183Z,0
2017-11-30T07:04:18.285Z,0
2017-11-30T07:05:40.048Z,0
2017-11-30T07:07:01.489Z,0
2017-11-30T07:08:22.910Z,0
2017-11-30T07:09:44.910Z,0
2017-11-30T07:11:06.349Z,0
2017-11-30T07:12:28.058Z,0
2017-11-30T07:13:49.509Z,0
2017-11-30T07:15:11.499Z,0
2017-11-30T07:16:33.811Z,0
2017-11-30T07:17:55.605Z,0
2017-11-30T07:19:17.136Z,0
2017-11-30T07:20:38.939Z,0
2017-11-30T07:22:00.483Z,5
2017-11-30T07:23:22.885Z,5
2017-11-30T07:24:44.870Z,5
2017-11-30T07:26:07.155Z,5
2017-11-30T07:27:28.909Z,5
2017-11-30T07:28:50.346Z,5
2017-11-30T07:30:12.338Z,5
2017-11-30T07:31:33.769Z,5
2017-11-30T07:32:55.771Z,5
2017-11-30T07:34:17.209Z,5
2017-11-30T07:35:38.939Z,5
2017-11-30T07:37:00.671Z,10
2017-11-30T07:38:22.666Z,10
2017-11-30T07:39:43.835Z,10
2017-11-30T07:41:05.545Z,15
2017-11-30T07:42:27.005Z,15
2017-11-30T07:43:49.426Z,15
2017-11-30T07:45:11.508Z,15
2017-11-30T07:46:32.994Z,15
2017-11-30T07:47:54.288Z,20
2017-11-30T07:49:15.724Z,20
2017-11-30T07:50:37.173Z,20
2017-11-30T07:51:58.335Z,20
2017-11-30T07:53:19.596Z,20
2017-11-30T07:54:41.705Z,20
2017-11-30T07:56:02.880Z,20
2017-11-30T07:57:25.165Z,25
2017-11-30T07:58:47.032Z,25
2017-11-30T08:00:09.097Z,30
2017-11-30T08:01:30.916Z,35
2017-11-30T08:02:52.251Z,35
2017-11-30T08:04:13.417Z,35
2017-11-30T08:05:35.212Z,35
2017-11-30T08:06:57.196Z,35
2017-11-30T08:08:19.256Z,35
2017-11-30T08:09:40.795Z,30
2017-11-30T08:11:02.306Z,30
2017-11-30T08:12:24.551Z,30
2017-11-30T08:13:46.894Z,35
2017-11-30T08:15:08.346Z,35
2017-11-30T08:16:30.077Z,35
2017-11-30T08:17:52.133Z,30
2017-11-30T08:19:13.588Z,30
2017-11-30T08:20:35.619Z,30
2017-11-30T08:21:57.618Z,35
2017-11-30T08:23:19.324Z,40
2017-11-30T08:24:40.835Z,45
2017-11-30T08:26:02.016Z,50
2017-11-30T08:27:23.738Z,60
2017-11-30T08:28:45.988Z,65
2017-11-30T08:30:07.753Z,70
2017-11-30T08:31:29.242Z,70
2017-11-30T08:32:50.683Z,80
2017-11-30T08:34:12.498Z,80
2017-11-30T08:35:34.534Z,80
2017-11-30T08:36:55.955Z,80
2017-11-30T08:38:17.100Z,80
2017-11-30T08:39:38.852Z,80
2017-11-30T08:41:00.280Z,80
2017-11-30T08:42:22.294Z,75
2017-11-30T08:43:44.007Z,65
2017-11-30T08:45:06.424Z,70
2017-11-30T08:46:27.902Z,65
2017-11-30T08:47:49.439Z,65
2017-11-30T08:49:11.157Z,60
2017-11-30T08:50:32.923Z,65
2017-11-30T08:51:54.344Z,65
2017-11-30T08:53:15.797Z,70
2017-11-30T08:54:37.227Z,70
2017-11-30T08:55:58.334Z,75
2017-11-30T08:57:20.416Z,70
2017-11-30T08:58:42.077Z,70
2017-11-30T09:00:04.066Z,65
2017-11-30T09:01:26.093Z,50
2017-11-30T09:02:48.330Z,50
2017-11-30T09:04:09.832Z,55
2017-11-30T09:05:31.463Z,55
2017-11-30T09:06:53.637Z,50
2017-11-30T09:08:15.318Z,50
2017-11-30T09:09:37.238Z,45
2017-11-30T09:10:59.433Z,50
2017-11-30T09:12:21.543Z,55
2017-11-30T09:13:43.269Z,55
2017-11-30T09:15:04.706Z,65
2017-11-30T09:16:26.477Z,70
2017-11-30T09:17:48.537Z,75
2017-11-30T09:19:09.703Z,75
2017-11-30T09:20:31.682Z,80
2017-11-30T09:21:53.113Z,85
2017-11-30T09:23:14.836Z,90
2017-11-30T09:24:36.539Z,95
2017-11-30T09:25:58.518Z,100
2017-11-30T09:27:20.713Z,105
2017-11-30T09:28:42.578Z,100
2017-11-30T09:30:04.573Z,105
2017-11-30T09:31:26.824Z,100
2017-11-30T09:32:49.168Z,105
2017-11-30T09:34:11.167Z,105
2017-11-30T09:35:32.902Z,105
2017-11-30T09:36:54.966Z,105
2017-11-30T09:38:16.944Z,105
2017-11-30T09:39:38.915Z,105
2017-11-30T09:41:00.956Z,100
2017-11-30T09:42:23.096Z,100
2017-11-30T09:43:45.357Z,105
2017-11-30T09:45:07.721Z,105
2017-11-30T09:46:29.800Z,110
2017-11-30T09:47:51.497Z,105
2017-11-30T09:49:13.486Z,110
2017-11-30T09:50:36.024Z,110
2017-11-30T09:51:57.539Z,105
2017-11-30T09:53:18.841Z,100
2017-11-30T09:54:40.332Z,100
2017-11-30T09:56:02.389Z,100
2017-11-30T09:57:23.851Z,100
2017-11-30T09:58:45.566Z,95
2017-11-30T10:00:07.286Z,95
2017-11-30T10:01:28.765Z,100
2017-11-30T10:02:50.495Z,100
2017-11-30T10:04:11.936Z,105
2017-11-30T10:05:33.980Z,105
2017-11-30T10:06:55.877Z,100
2017-11-30T10:08:17.408Z,100
2017-11-30T10:09:38.664Z,100
2017-11-30T10:11:00.964Z,100
2017-11-30T10:12:22.936Z,105
2017-11-30T10:13:44.926Z,105
2017-11-30T10:15:06.908Z,100
2017-11-30T10:16:28.722Z,100
2017-11-30T10:17:50.437Z,110
2017-11-30T10:19:11.977Z,100
2017-11-30T10:20:34.227Z,100
2017-11-30T10:21:56.225Z,95
2017-11-30T10:23:17.929Z,100
2017-11-30T10:24:39.736Z,100
2017-11-30T10:26:01.895Z,110
2017-11-30T10:27:23.937Z,100
2017-11-30T10:28:46.193Z,100
2017-11-30T10:30:08.195Z,100
2017-11-30T10:31:29.918Z,105
2017-11-30T10:32:52.228Z,100
2017-11-30T10:34:14.206Z,100
2017-11-30T10:35:35.952Z,105
2017-11-30T10:36:57.496Z,100
2017-11-30T10:38:19.292Z,105
2017-11-30T10:39:40.723Z,100
2017-11-30T10:41:02.886Z,115
2017-11-30T10:42:24.455Z,110
2017-11-30T10:43:46.436Z,120
2017-11-30T10:45:08.140Z,120
2017-11-30T10:46:29.914Z,120
2017-11-30T10:47:51.936Z,125
2017-11-30T10:49:13.929Z,120
2017-11-30T10:50:35.958Z,120
2017-11-30T10:51:57.724Z,125
2017-11-30T10:53:18.976Z,120
2017-11-30T10:54:40.691Z,120
2017-11-30T10:56:02.502Z,115
2017-11-30T10:57:24.891Z,120
2017-11-30T10:58:47.154Z,120
2017-11-30T11:00:08.887Z,115
2017-11-30T11:01:31.254Z,110
2017-11-30T11:02:52.729Z,110
2017-11-30T11:04:14.468Z,110
2017-11-30T11:05:35.904Z,110
2017-11-30T11:06:57.987Z,115
2017-11-30T11:08:20.002Z,110
2017-11-30T11:09:41.725Z,105
2017-11-30T11:11:03.226Z,110
2017-11-30T11:12:25.505Z,115
2017-11-30T11:13:47.509Z,120
2017-11-30T11:15:09.507Z,125
2017-11-30T11:16:31.274Z,120
2017-11-30T11:17:53.185Z,110
2017-11-30T11:19:14.635Z,95
2017-11-30T11:20:36.679Z,80
2017-11-30T11:21:58.498Z,80
2017-11-30T11:23:20.573Z,75
2017-11-30T11:24:42.293Z,75
2017-11-30T11:26:04.375Z,90
2017-11-30T11:27:26.364Z,100
2017-11-30T11:28:48.220Z,95
2017-11-30T11:30:10.250Z,90
2017-11-30T11:31:32.218Z,85
2017-11-30T11:32:54.289Z,80
2017-11-30T11:34:16.046Z,80
2017-11-30T11:35:38.036Z,70
2017-11-30T11:37:00.047Z,65
2017-11-30T11:38:21.839Z,65
2017-11-30T11:39:43.688Z,70
2017-11-30T11:41:05.948Z,65
2017-11-30T11:42:28.224Z,70
2017-11-30T11:43:50.220Z,75
2017-11-30T11:45:11.951Z,65
2017-11-30T11:46:33.430Z,60
2017-11-30T11:47:55.726Z,75
2017-11-30T11:49:17.159Z,70
2017-11-30T11:50:39.205Z,60
2017-11-30T11:52:01.218Z,50
2017-11-30T11:53:23.314Z,55
2017-11-30T11:54:45.019Z,55
2017-11-30T11:56:06.755Z,50
2017-11-30T11:57:28.499Z,50
2017-11-30T11:58:50.265Z,60
2017-11-30T12:00:12.045Z,80
2017-11-30T12:01:32.960Z,95
2017-11-30T12:02:54.716Z,100
2017-11-30T12:04:16.424Z,100
2017-11-30T12:05:38.796Z,100
2017-11-30T12:07:00.623Z,85
2017-11-30T12:08:22.634Z,80
2017-11-30T12:09:44.227Z,75
2017-11-30T12:11:05.958Z,75
2017-11-30T12:12:27.671Z,75
2017-11-30T12:13:49.669Z,75
2017-11-30T12:15:11.958Z,80
2017-11-30T12:16:33.496Z,80
2017-11-30T12:17:55.733Z,70
2017-11-30T12:19:18.014Z,65
2017-11-30T12:20:39.804Z,75
2017-11-30T12:22:01.522Z,75
2017-11-30T12:23:23.639Z,70
2017-11-30T12:24:45.738Z,60
2017-11-30T12:26:07.517Z,50
2017-11-30T12:27:29.523Z,45
2017-11-30T12:28:51.776Z,45
2017-11-30T12:30:13.225Z,40
2017-11-30T12:31:35.497Z,35
2017-11-30T12:32:57.519Z,35
2017-11-30T12:34:19.314Z,35
2017-11-30T12:35:41.035Z,30
2017-11-30T12:37:02.496Z,30
2017-11-30T12:38:24.602Z,30
2017-11-30T12:39:46.425Z,30
2017-11-30T12:41:07.865Z,30
2017-11-30T12:42:29.325Z,30
2017-11-30T12:43:50.782Z,30
2017-11-30T12:45:13.185Z,30
2017-11-30T12:46:34.633Z,30
2017-11-30T12:47:56.675Z,35
2017-11-30T12:49:18.444Z,35
2017-11-30T12:50:40.475Z,35
2017-11-30T12:52:02.248Z,40
2017-11-30T12:53:24.026Z,35
2017-11-30T12:54:45.736Z,35
2017-11-30T12:56:07.768Z,35
2017-11-30T12:57:30.846Z,35
2017-11-30T12:58:52.913Z,35
2017-11-30T13:00:14.901Z,40
2017-11-30T13:01:36.944Z,40
2017-11-30T13:02:58.915Z,40
2017-11-30T13:04:20.981Z,40
2017-11-30T13:05:42.948Z,45
2017-11-30T13:07:05.095Z,45
2017-11-30T13:08:27.083Z,50
2017-11-30T13:09:48.525Z,50
2017-11-30T13:11:10.840Z,50
2017-11-30T13:12:32.897Z,50
2017-11-30T13:13:54.864Z,55
2017-11-30T13:15:16.563Z,55
2017-11-30T13:16:38.381Z,55
2017-11-30T13:18:00.106Z,55
2017-11-30T13:19:21.582Z,50
2017-11-30T13:20:43.849Z,50
2017-11-30T13:22:05.875Z,45
2017-11-30T13:23:27.935Z,40
2017-11-30T13:24:49.940Z,35
2017-11-30T13:26:12.259Z,35
2017-11-30T13:27:34.524Z,35
2017-11-30T13:28:55.957Z,30
2017-11-30T13:30:17.779Z,30
2017-11-30T13:31:39.506Z,30
2017-11-30T13:33:01.777Z,25
2017-11-30T13:34:23.517Z,25
2017-11-30T13:35:45.849Z,25
2017-11-30T13:37:07.822Z,25
2017-11-30T13:38:29.314Z,20
2017-11-30T13:39:51.310Z,20
2017-11-30T13:41:13.078Z,20
2017-11-30T13:42:34.990Z,20
2017-11-30T13:43:56.523Z,20
2017-11-30T13:45:18.527Z,20
2017-11-30T13:46:40.257Z,20
2017-11-30T13:48:02.257Z,20
2017-11-30T13:49:24.076Z,20
2017-11-30T13:50:45.556Z,20
2017-11-30T13:52:07.586Z,20
2017-11-30T13:53:29.576Z,20
2017-11-30T13:54:51.578Z,20
2017-11-30T13:56:13.564Z,20
2017-11-30T13:57:35.273Z,20
2017-11-30T13:58:56.999Z,20
2017-11-30T14:00:18.734Z,20
2017-11-30T14:01:40.178Z,20
2017-11-30T14:03:02.159Z,20
2017-11-30T14:04:23.873Z,20
2017-11-30T14:05:45.850Z,15
2017-11-30T14:07:07.553Z,15
2017-11-30T14:08:29.583Z,15
2017-11-30T14:09:51.565Z,15
2017-11-30T14:11:13.305Z,15
2017-11-30T14:12:35.299Z,10
2017-11-30T14:13:57.561Z,10
2017-11-30T14:15:19.547Z,10
2017-11-30T14:16:41.525Z,10
2017-11-30T14:18:03.514Z,10
2017-11-30T14:19:25.488Z,10
2017-11-30T14:20:46.917Z,10
2017-11-30T14:22:09.304Z,10
2017-11-30T14:23:31.001Z,10
2017-11-30T14:24:52.984Z,10
2017-11-30T14:26:15.241Z,10
2017-11-30T14:27:37.196Z,10
2017-11-30T14:28:59.201Z,10
2017-11-30T14:30:20.726Z,10
2017-11-30T14:31:42.471Z,5
2017-11-30T14:33:04.232Z,5
2017-11-30T14:34:26.493Z,5
2017-11-30T14:35:48.475Z,5
2017-11-30T14:37:10.516Z,5
2017-11-30T14:38:32.613Z,5
2017-11-30T14:39:54.863Z,5
2017-11-30T14:41:16.841Z,5
2017-11-30T14:42:38.831Z,0
2017-11-30T14:44:00.806Z,0
2017-11-30T14:45:22.304Z,0
2017-11-30T14:46:44.078Z,0
2017-11-30T14:48:06.225Z,0
2017-11-30T14:49:27.666Z,0
2017-11-30T14:50:49.641Z,0
2017-11-30T14:52:11.115Z,0
2017-11-30T14:53:33.216Z,0
2017-11-30T14:54:55.185Z,0
2017-11-30T14:56:17.265Z,0
2017-11-30T14:57:38.965Z,0
2017-11-30T14:59:01.226Z,0
2017-11-30T15:00:23.480Z,0
2017-11-30T15:01:45.856Z,0
2017-11-30T15:03:07.832Z,0
2017-11-30T15:04:30.081Z,0
2017-11-30T15:05:51.638Z,0
2017-11-30T15:07:13.594Z,0
2017-11-30T15:08:35.311Z,0
2017-11-30T15:09:57.047Z,0
2017-11-30T15:11:19.138Z,0
2017-11-30T15:12:41.177Z,0
2017-11-30T15:14:03.409Z,0
2017-11-30T15:15:25.801Z,0
2017-11-30T15:16:47.517Z,0
2017-11-30T15:18:09.767Z,0
2017-11-30T15:19:32.157Z,0
2017-11-30T15:20:54.384Z,0
2017-11-30T15:22:16.348Z,0
2017-11-30T15:23:38.436Z,0
2017-11-30T15:25:00.176Z,0
2017-11-30T15:26:22.167Z,0
2017-11-30T15:27:44.425Z,0
2017-11-30T15:29:06.001Z,0
2017-11-30T15:30:27.976Z,0
2017-11-30T15:31:49.683Z,0
2017-11-30T15:33:11.655Z,0
2017-11-30T15:34:33.727Z,0
2017-11-30T15:35:56.129Z,0
2017-11-30T15:37:18.136Z,0
2017-11-30T15:38:39.842Z,0
2017-11-30T15:40:01.564Z,0
2017-11-30T15:41:22.989Z,0
2017-11-30T15:42:44.690Z,0
2017-11-30T15:44:06.755Z,0
2017-11-30T15:45:28.845Z,0
2017-11-30T15:46:50.813Z,0
2017-11-30T15:48:12.023Z,0
2017-11-30T15:49:33.546Z,0
2017-11-30T15:50:55.070Z,0
2017-11-30T15:52:17.037Z,0
2017-11-30T15:53:38.765Z,0
2017-11-30T15:55:00.487Z,0
2017-11-30T15:56:22.502Z,0
2017-11-30T15:57:44.523Z,0
2017-11-30T15:59:06.267Z,0
2017-11-30T16:00:28.397Z,0
2017-11-30T16:01:50.748Z,0
2017-11-30T16:03:12.236Z,0
2017-11-30T16:04:34.412Z,0
2017-11-30T16:05:56.412Z,0
2017-11-30T16:07:18.477Z,0
2017-11-30T16:08:40.448Z,0
2017-11-30T16:10:02.702Z,0
2017-11-30T16:11:24.807Z,0
2017-11-30T16:12:47.033Z,0
2017-11-30T16:14:09.053Z,0
2017-11-30T16:15:30.772Z,0
2017-11-30T16:16:52.771Z,0
2017-11-30T16:18:14.753Z,0
2017-11-30T16:19:36.557Z,0
2017-11-30T16:20:58.285Z,0
2017-11-30T16:22:20.557Z,0
2017-11-30T16:23:41.995Z,0
2017-11-30T16:25:03.688Z,0
2017-11-30T16:26:25.769Z,0
2017-11-30T16:27:47.506Z,0
2017-11-30T16:29:09.726Z,0
2017-11-30T16:30:31.240Z,0
2017-11-30T16:31:53.497Z,0
2017-11-30T16:33:15.195Z,0
2017-11-30T16:34:37.542Z,0
2017-11-30T16:35:59.568Z,0
2017-11-30T16:37:21.668Z,0
2017-11-30T16:38:43.945Z,0
2017-11-30T16:40:05.944Z,0
2017-11-30T16:41:28.204Z,0
2017-11-30T16:42:50.608Z,0
2017-11-30T16:44:12.541Z,0
2017-11-30T16:45:34.078Z,0
2017-11-30T16:46:56.080Z,0
2017-11-30T16:48:18.174Z,0
2017-11-30T16:49:40.167Z,0
2017-11-30T16:51:02.038Z,0
2017-11-30T16:52:24.281Z,0
2017-11-30T16:53:46.275Z,0
2017-11-30T16:55:08.321Z,0
2017-11-30T16:56:30.130Z,0
2017-11-30T16:57:52.321Z,0
2017-11-30T16:59:14.304Z,0
2017-11-30T17:00:36.034Z,0
2017-11-30T17:01:58.363Z,0
2017-11-30T17:03:20.707Z,0
2017-11-30T17:04:42.768Z,0
2017-11-30T17:06:04.636Z,0
2017-11-30T17:07:26.615Z,0
2017-11-30T17:08:48.939Z,0
2017-11-30T17:10:10.981Z,0
2017-11-30T17:11:33.304Z,0
2017-11-30T17:12:55.385Z,0
2017-11-30T17:14:17.113Z,0
2017-11-30T17:15:39.240Z,0
2017-11-30T17:17:01.516Z,0
2017-11-30T17:18:23.622Z,0
2017-11-30T17:19:45.611Z,0
2017-11-30T17:21:07.875Z,0
2017-11-30T17:22:29.896Z,0
2017-11-30T17:23:52.265Z,0
2017-11-30T17:25:14.569Z,0
2017-11-30T17:26:36.271Z,0
2017-11-30T17:27:58.563Z,0
2017-11-30T17:29:21.123Z,0
2017-11-30T17:30:43.407Z,0
2017-11-30T17:32:05.521Z,0
2017-11-30T17:33:26.689Z,0
2017-11-30T17:34:49.112Z,0
2017-11-30T17:36:11.127Z,0
2017-11-30T17:37:33.125Z,0
2017-11-30T17:38:55.470Z,0
2017-11-30T17:40:17.462Z,0
2017-11-30T17:41:39.488Z,0
2017-11-30T17:43:01.527Z,0
2017-11-30T17:44:22.987Z,0
2017-11-30T17:45:44.812Z,0
2017-11-30T17:47:07.202Z,0
2017-11-30T17:48:29.214Z,0
2017-11-30T17:49:51.108Z,0
2017-11-30T17:51:12.957Z,0
2017-11-30T17:52:35.247Z,0
2017-11-30T17:53:57.383Z,0
2017-11-30T17:55:19.770Z,0
2017-11-30T17:56:41.776Z,0
2017-11-30T17:58:04.174Z,0
2017-11-30T17:59:26.465Z,0
2017-11-30T18:00:48.806Z,0
2017-11-30T18:02:11.067Z,0
2017-11-30T18:03:33.722Z,0
2017-11-30T18:04:55.921Z,0
2017-11-30T18:06:18.228Z,0
2017-11-30T18:07:40.545Z,0
2017-11-30T18:09:02.848Z,0
2017-11-30T18:10:24.914Z,0
2017-11-30T18:11:47.206Z,0
2017-11-30T18:13:08.976Z,0
2017-11-30T18:14:31.048Z,0
2017-11-30T18:15:53.067Z,0
2017-11-30T18:17:15.139Z,0
2017-11-30T18:18:37.503Z,0
2017-11-30T18:19:59.819Z,0
2017-11-30T18:21:21.852Z,0
2017-11-30T18:22:43.847Z,0
2017-11-30T18:24:06.136Z,0
2017-11-30T18:25:27.833Z,0
2017-11-30T18:26:50.127Z,0
2017-11-30T18:28:12.279Z,0
2017-11-30T18:29:34.000Z,0
2017-11-30T18:30:55.765Z,0
2017-11-30T18:32:18.027Z,0
2017-11-30T18:33:40.079Z,0
2017-11-30T18:35:02.065Z,0
2017-11-30T18:36:24.359Z,0
2017-11-30T18:37:46.666Z,0
2017-11-30T18:39:08.129Z,0
2017-11-30T18:40:30.422Z,0
2017-11-30T18:41:52.788Z,0
2017-11-30T18:43:14.653Z,0
2017-11-30T18:44:36.937Z,0
2017-11-30T18:45:59.029Z,0
2017-11-30T18:47:20.756Z,0
2017-11-30T18:48:42.764Z,0
2017-11-30T18:50:04.828Z,0
2017-11-30T18:51:26.537Z,0
2017-11-30T18:52:48.576Z,0
2017-11-30T18:54:10.609Z,0
2017-11-30T18:55:32.584Z,0
2017-11-30T18:56:54.296Z,0
2017-11-30T18:58:16.574Z,0
2017-11-30T18:59:38.610Z,0
2017-11-30T19:01:00.685Z,0
2017-11-30T19:02:23.031Z,0
2017-11-30T19:03:45.328Z,0
2017-11-30T19:05:07.735Z,0
2017-11-30T19:06:30.131Z,0
2017-11-30T19:07:52.474Z,0
2017-11-30T19:09:13.897Z,0
2017-11-30T19:10:36.221Z,0
2017-11-30T19:11:58.322Z,0
2017-11-30T19:13:20.687Z,0
2017-11-30T19:14:42.998Z,0
2017-11-30T19:16:04.747Z,0
2017-11-30T19:17:27.066Z,0
2017-11-30T19:18:49.058Z,0
2017-11-30T19:20:11.036Z,0
2017-11-30T19:21:32.914Z,0
2017-11-30T19:22:54.659Z,0
2017-11-30T19:24:16.438Z,0
2017-11-30T19:25:38.153Z,0
2017-11-30T19:27:00.173Z,0
2017-11-30T19:28:22.435Z,0
2017-11-30T19:29:44.531Z,0
2017-11-30T19:31:06.581Z,0
2017-11-30T19:32:28.716Z,0
2017-11-30T19:33:50.516Z,0
2017-11-30T19:35:12.926Z,0
2017-11-30T19:36:35.129Z,0
2017-11-30T19:37:57.438Z,0
2017-11-30T19:39:19.544Z,0
2017-11-30T19:40:41.384Z,0
2017-11-30T19:42:03.991Z,0
2017-11-30T19:43:26.384Z,0
2017-11-30T19:44:48.709Z,0
2017-11-30T19:46:10.726Z,0
2017-11-30T19:47:33.154Z,0
2017-11-30T19:48:55.314Z,0
2017-11-30T19:50:17.645Z,0